createdAt,value
2019-05-28T00:00:04.820Z,1.50
2019-05-28T00:02:39.329Z,1.67
2019-05-28T00:05:14.890Z,1.60
2019-05-28T00:07:50.535Z,1.50
2019-05-28T00:10:27.337Z,1.30
2019-05-28T00:13:01.831Z,1.20
2019-05-28T00:15:36.337Z,1.30
2019-05-28T00:18:10.337Z,1.40
2019-05-28T00:20:47.546Z,1.43
2019-05-28T00:23:24.832Z,1.40
2019-05-28T00:26:00.890Z,1.30
2019-05-28T00:28:35.345Z,1.13
2019-05-28T00:31:10.138Z,1.30
2019-05-28T00:33:48.038Z,1.60
2019-05-28T00:36:24.336Z,1.50
2019-05-28T00:38:59.361Z,1.40
2019-05-28T00:41:34.982Z,1.30
2019-05-28T00:44:12.346Z,1.50
2019-05-28T00:46:47.919Z,1.50
2019-05-28T00:49:23.773Z,1.40
2019-05-28T00:52:02.908Z,1.30
2019-05-28T00:54:38.371Z,1.30
2019-05-28T00:57:15.838Z,1.20
2019-05-28T00:59:55.350Z,1.53
2019-05-28T01:02:32.549Z,1.27
2019-05-28T01:05:07.363Z,1.60
2019-05-28T01:07:43.960Z,1.70
2019-05-28T01:10:20.351Z,1.60
2019-05-28T01:12:57.914Z,1.53
2019-05-28T01:15:32.391Z,1.30
2019-05-28T01:18:09.823Z,1.63
2019-05-28T01:20:44.862Z,1.10
2019-05-28T01:23:26.037Z,1.40
2019-05-28T01:26:06.194Z,1.30
2019-05-28T01:28:42.351Z,1.27
2019-05-28T01:31:17.356Z,1.20
2019-05-28T01:33:53.751Z,1.40
2019-05-28T01:36:38.816Z,1.67
2019-05-28T01:39:13.850Z,1.17
2019-05-28T01:41:50.352Z,1.47
2019-05-28T01:44:26.174Z,1.30
2019-05-28T01:47:07.382Z,1.30
2019-05-28T01:49:42.789Z,1.10
2019-05-28T01:52:20.928Z,1.10
2019-05-28T01:54:58.355Z,1.10
2019-05-28T01:57:35.908Z,1.00
2019-05-28T02:00:20.953Z,0.80
2019-05-28T02:02:59.871Z,0.87
2019-05-28T02:05:35.929Z,1.00
2019-05-28T02:08:18.138Z,1.10
2019-05-28T02:10:52.375Z,1.00
2019-05-28T02:13:31.065Z,1.20
2019-05-28T02:16:07.363Z,1.30
2019-05-28T02:18:43.999Z,0.90
2019-05-28T02:21:20.876Z,0.90
2019-05-28T02:23:55.380Z,1.10
2019-05-28T02:26:31.379Z,0.90
2019-05-28T02:29:10.366Z,1.13
2019-05-28T02:31:45.365Z,0.97
2019-05-28T02:34:26.363Z,1.10
2019-05-28T02:37:00.362Z,1.00
2019-05-28T02:39:37.788Z,0.90
2019-05-28T02:42:14.047Z,0.90
2019-05-28T02:44:54.364Z,0.90
2019-05-28T02:47:32.380Z,1.20
2019-05-28T02:50:15.120Z,0.83
2019-05-28T02:52:54.251Z,0.97
2019-05-28T02:55:36.379Z,0.93
2019-05-28T02:58:16.026Z,0.90
2019-05-28T03:00:55.944Z,0.90
2019-05-28T03:03:34.054Z,0.90
2019-05-28T03:06:15.025Z,0.80
2019-05-28T03:08:59.882Z,0.90
2019-05-28T03:11:34.379Z,0.60
2019-05-28T03:14:12.849Z,0.90
2019-05-28T03:16:52.393Z,0.90
2019-05-28T03:19:30.378Z,0.60
2019-05-28T03:22:06.929Z,0.70
2019-05-28T03:24:44.216Z,0.80
2019-05-28T03:27:22.935Z,0.80
2019-05-28T03:30:02.679Z,0.83
2019-05-28T03:32:39.969Z,0.70
2019-05-28T03:35:20.392Z,0.70
2019-05-28T03:37:57.001Z,0.80
2019-05-28T03:40:53.529Z,0.90
2019-05-28T03:46:55.005Z,0.83
2019-05-28T03:49:32.907Z,0.70
2019-05-28T03:52:06.928Z,1.10
2019-05-28T03:54:41.400Z,1.00
2019-05-28T03:57:16.779Z,0.87
2019-05-28T03:59:57.521Z,1.13
2019-05-28T04:02:31.966Z,0.67
2019-05-28T04:05:07.000Z,0.97
2019-05-28T04:07:46.131Z,0.93
2019-05-28T04:10:25.055Z,1.10
2019-05-28T04:13:03.833Z,0.97
2019-05-28T04:15:43.722Z,1.37
2019-05-28T04:18:20.805Z,1.00
2019-05-28T04:20:56.865Z,1.07
2019-05-28T04:27:15.129Z,1.00
2019-05-28T04:29:51.009Z,1.03
2019-05-28T04:32:39.957Z,1.20
2019-05-28T04:35:08.010Z,0.93
2019-05-28T04:37:48.782Z,1.40
2019-05-28T04:44:17.416Z,1.47
2019-05-28T04:50:33.408Z,1.40
2019-05-28T04:53:08.407Z,1.20
2019-05-28T04:55:45.002Z,1.13
2019-05-28T05:02:05.416Z,1.40
2019-05-28T05:08:21.943Z,1.27
2019-05-28T05:11:07.015Z,1.80
2019-05-28T05:13:46.758Z,2.10
2019-05-28T05:16:40.241Z,1.83
2019-05-28T05:19:18.945Z,1.40
2019-05-28T05:25:13.052Z,1.50
2019-05-28T05:27:46.638Z,1.90
2019-05-28T05:34:01.741Z,2.20
2019-05-28T05:40:11.909Z,1.83
2019-05-28T05:46:26.081Z,1.70
2019-05-28T05:49:10.948Z,1.83
2019-05-28T05:55:19.038Z,2.53
2019-05-28T05:58:01.373Z,2.40
2019-05-28T06:00:34.434Z,2.20
2019-05-28T06:03:14.921Z,2.30
2019-05-28T06:05:53.465Z,2.43
2019-05-28T06:08:36.413Z,2.37
2019-05-28T06:11:18.048Z,2.43
2019-05-28T06:14:07.003Z,2.47
2019-05-28T06:16:56.770Z,2.60
2019-05-28T06:23:17.712Z,2.60
2019-05-28T06:25:55.322Z,2.80
2019-05-28T06:28:47.564Z,2.87
2019-05-28T06:31:27.822Z,2.20
2019-05-28T06:34:04.504Z,2.80
2019-05-28T06:36:41.962Z,2.63
2019-05-28T06:42:52.488Z,2.73
2019-05-28T06:55:01.940Z,2.53
2019-05-28T06:57:40.056Z,2.73
2019-05-28T07:00:24.300Z,3.00
2019-05-28T07:06:14.746Z,2.67
2019-05-28T07:12:07.990Z,3.00
2019-05-28T07:15:01.062Z,3.03
2019-05-28T07:17:41.409Z,3.20
2019-05-28T07:23:41.498Z,3.33
2019-05-28T07:29:51.452Z,7.30
2019-05-28T07:35:57.500Z,3.03
2019-05-28T07:38:35.518Z,3.10
2019-05-28T07:41:12.475Z,3.20
2019-05-28T07:47:30.946Z,3.00
2019-05-28T07:50:08.675Z,2.77
2019-05-28T07:52:47.978Z,3.00
2019-05-28T07:55:25.057Z,3.80
2019-05-28T07:58:01.323Z,3.03
2019-05-28T08:00:47.005Z,3.10
2019-05-28T08:03:22.055Z,3.50
2019-05-28T08:06:00.141Z,3.93
2019-05-28T08:12:03.535Z,3.30
2019-05-28T08:14:38.083Z,3.47
2019-05-28T08:17:13.730Z,3.50
2019-05-28T08:23:16.843Z,4.13
2019-05-28T08:29:16.060Z,2.63
2019-05-28T08:31:51.536Z,3.00
2019-05-28T08:34:27.041Z,2.80
2019-05-28T08:37:06.272Z,2.23
2019-05-28T08:39:43.366Z,2.80
2019-05-28T08:45:46.884Z,2.90
2019-05-28T08:48:22.575Z,2.60
2019-05-28T08:50:56.948Z,2.63
2019-05-28T08:53:35.057Z,3.20
2019-05-28T08:56:11.147Z,2.60
2019-05-28T08:58:45.561Z,2.40
2019-05-28T09:01:25.075Z,2.33
2019-05-28T09:04:01.332Z,2.50
2019-05-28T09:06:38.413Z,2.20
2019-05-28T09:09:12.551Z,2.57
2019-05-28T09:11:48.553Z,2.47
2019-05-28T09:14:24.587Z,2.67
2019-05-28T09:20:39.565Z,3.30
2019-05-28T09:23:14.969Z,2.40
2019-05-28T09:25:49.390Z,2.70
2019-05-28T09:32:05.020Z,2.93
2019-05-28T09:38:22.030Z,2.77
2019-05-28T09:40:58.559Z,2.40
2019-05-28T09:43:33.564Z,2.53
2019-05-28T09:46:12.251Z,2.07
2019-05-28T09:48:47.566Z,2.90
2019-05-28T09:51:24.169Z,1.80
2019-05-28T09:57:27.593Z,2.00
2019-05-28T10:00:03.124Z,2.53
2019-05-28T10:06:16.253Z,1.93
2019-05-28T10:12:22.451Z,2.17
2019-05-28T10:14:57.281Z,2.40
2019-05-28T10:17:32.112Z,2.13
2019-05-28T10:23:49.152Z,2.27
2019-05-28T10:30:06.182Z,2.03
2019-05-28T10:36:35.383Z,2.17
2019-05-28T10:42:26.584Z,1.70
2019-05-28T10:48:42.139Z,1.63
2019-05-28T10:51:17.992Z,1.47
2019-05-28T10:53:52.001Z,1.57
2019-05-28T10:56:28.265Z,1.53
2019-05-28T10:59:04.114Z,1.57
2019-05-28T11:05:11.118Z,1.50
2019-05-28T11:07:46.594Z,1.70
2019-05-28T11:10:24.195Z,1.60
2019-05-28T11:12:57.587Z,1.60
2019-05-28T11:15:32.070Z,1.50
2019-05-28T11:18:08.583Z,1.63
2019-05-28T11:20:43.165Z,1.60
2019-05-28T11:23:18.818Z,1.67
2019-05-28T11:25:56.617Z,1.80
2019-05-28T11:28:31.595Z,1.80
2019-05-28T11:31:10.054Z,1.33
2019-05-28T11:33:47.139Z,1.47
2019-05-28T11:36:22.611Z,1.40
2019-05-28T11:38:58.231Z,1.40
2019-05-28T11:41:42.194Z,1.40
2019-05-28T11:44:12.215Z,1.30
2019-05-28T11:46:52.606Z,1.30
2019-05-28T11:55:15.603Z,1.40
2019-05-28T11:57:49.132Z,1.30
2019-05-28T12:00:24.607Z,1.40
2019-05-28T12:02:59.200Z,1.10
2019-05-28T12:09:21.155Z,1.33
2019-05-28T12:15:24.057Z,1.20
2019-05-28T12:21:13.597Z,1.20
2019-05-28T12:27:18.634Z,0.97
2019-05-28T12:33:23.637Z,0.80
2019-05-28T12:36:21.124Z,1.10
2019-05-28T12:38:59.043Z,0.70
2019-05-28T12:42:00.784Z,0.70
2019-05-28T12:44:41.474Z,0.73
2019-05-28T12:50:45.627Z,0.80
2019-05-28T12:56:26.162Z,0.60
2019-05-28T13:02:29.633Z,0.70
2019-05-28T13:05:03.101Z,0.73
2019-05-28T13:11:08.452Z,0.60
2019-05-28T13:13:43.066Z,0.70
2019-05-28T13:19:45.633Z,0.70
2019-05-28T13:22:20.186Z,0.90
2019-05-28T13:28:35.662Z,0.80
2019-05-28T13:31:09.675Z,0.80
2019-05-28T13:33:44.699Z,0.73
2019-05-28T13:36:18.703Z,0.77
2019-05-28T13:42:25.708Z,1.00
2019-05-28T13:48:18.512Z,0.80
2019-05-28T13:54:00.395Z,0.80
2019-05-28T13:59:58.406Z,0.60
2019-05-28T14:08:47.369Z,0.70
2019-05-28T14:11:23.577Z,0.90
2019-05-28T14:13:57.859Z,0.70
2019-05-28T14:16:32.855Z,0.93
2019-05-28T14:19:07.890Z,0.80
2019-05-28T14:27:44.357Z,0.70
2019-05-28T14:30:20.416Z,0.67
2019-05-28T14:32:57.503Z,0.73
2019-05-28T14:35:34.580Z,0.97
2019-05-28T14:41:39.530Z,0.87
2019-05-28T14:47:57.799Z,0.90
2019-05-28T14:50:34.469Z,0.70
2019-05-28T14:53:09.968Z,0.80
2019-05-28T14:55:46.383Z,0.90
2019-05-28T14:58:21.972Z,0.70
2019-05-28T15:00:58.704Z,0.80
2019-05-28T15:03:36.397Z,0.70
2019-05-28T15:09:40.610Z,0.77
2019-05-28T15:12:14.979Z,1.10
2019-05-28T15:18:31.372Z,1.37
2019-05-28T15:24:49.959Z,1.30
2019-05-28T15:27:26.721Z,1.30
2019-05-28T15:30:02.573Z,0.90
2019-05-28T15:32:37.402Z,1.30
2019-05-28T15:35:15.505Z,1.27
2019-05-28T15:37:52.586Z,1.50
2019-05-28T15:40:33.555Z,1.50
2019-05-28T15:43:20.990Z,2.00
2019-05-28T15:46:09.989Z,2.30
2019-05-28T15:48:43.989Z,1.60
2019-05-28T15:51:20.321Z,1.80
2019-05-28T15:53:56.713Z,1.90
2019-05-28T15:56:43.223Z,2.20
2019-05-28T15:59:21.603Z,1.50
2019-05-28T16:01:57.450Z,1.87
2019-05-28T16:04:31.993Z,1.60
2019-05-28T16:07:08.542Z,1.40
2019-05-28T16:09:55.503Z,1.53
2019-05-28T16:12:23.527Z,1.30
2019-05-28T16:15:00.406Z,2.40
2019-05-28T16:17:40.576Z,1.60
2019-05-28T16:20:20.113Z,1.50
2019-05-28T16:22:54.991Z,1.50
2019-05-28T16:25:35.900Z,1.37
2019-05-28T16:28:21.583Z,1.40
2019-05-28T16:31:11.676Z,1.13
2019-05-28T16:33:38.405Z,1.20
2019-05-28T16:36:14.463Z,1.40
2019-05-28T16:39:00.020Z,1.40
2019-05-28T16:41:41.530Z,1.40
2019-05-28T16:44:35.031Z,1.20
2019-05-28T16:47:18.773Z,1.80
2019-05-28T16:49:56.530Z,1.00
2019-05-28T16:52:33.618Z,1.47
2019-05-28T16:55:13.579Z,1.20
2019-05-28T16:57:54.329Z,1.30
2019-05-28T17:00:32.660Z,1.47
2019-05-28T17:03:10.042Z,1.07
2019-05-28T17:05:45.572Z,1.13
2019-05-28T17:08:21.426Z,1.07
2019-05-28T17:10:58.522Z,1.10
2019-05-28T17:13:36.090Z,1.00
2019-05-28T17:16:13.010Z,1.10
2019-05-28T17:19:02.553Z,1.30
2019-05-28T17:21:39.002Z,1.10
2019-05-28T17:24:13.542Z,1.30
2019-05-28T17:26:49.015Z,1.10
2019-05-28T17:29:24.633Z,1.20
2019-05-28T17:32:00.483Z,1.00
2019-05-28T17:34:36.008Z,1.40
2019-05-28T17:37:11.574Z,0.93
2019-05-28T17:39:50.503Z,1.07
2019-05-28T17:42:29.220Z,1.17
2019-05-28T17:45:06.517Z,1.00
2019-05-28T17:47:44.216Z,1.10
2019-05-28T17:50:19.447Z,1.00
2019-05-28T17:52:57.581Z,1.10
2019-05-28T17:55:33.023Z,1.07
2019-05-28T17:58:13.553Z,0.80
2019-05-28T18:00:48.016Z,0.90
2019-05-28T18:03:22.020Z,0.90
2019-05-28T18:05:56.826Z,1.00
2019-05-28T18:08:33.007Z,1.40
2019-05-28T18:11:08.012Z,1.30
2019-05-28T18:13:44.780Z,0.80
2019-05-28T18:16:19.025Z,1.30
2019-05-28T18:19:00.435Z,1.17
2019-05-28T18:21:43.207Z,1.10
2019-05-28T18:24:18.635Z,0.80
2019-05-28T18:26:57.558Z,1.17
2019-05-28T18:29:33.031Z,1.17
2019-05-28T18:32:19.027Z,1.10
2019-05-28T18:34:53.017Z,1.00
2019-05-28T18:37:29.570Z,1.00
2019-05-28T18:40:05.422Z,1.17
2019-05-28T18:42:41.495Z,1.00
2019-05-28T18:48:49.713Z,0.90
2019-05-28T18:51:25.017Z,0.80
2019-05-28T18:57:29.493Z,1.10
2019-05-28T19:03:34.447Z,1.10
2019-05-28T19:09:39.028Z,1.30
2019-05-28T19:12:14.056Z,0.87
2019-05-28T19:15:01.055Z,0.93
2019-05-28T19:21:05.890Z,1.10
2019-05-28T19:23:40.517Z,0.83
2019-05-28T19:29:58.039Z,1.07
2019-05-28T19:32:32.993Z,0.80
2019-05-28T19:35:08.646Z,1.10
2019-05-28T19:37:45.927Z,0.93
2019-05-28T19:40:26.697Z,1.00
2019-05-28T19:46:21.819Z,0.90
2019-05-28T19:49:01.359Z,1.17
2019-05-28T19:51:36.600Z,1.10
2019-05-28T19:54:27.629Z,0.93
2019-05-28T19:57:04.279Z,0.80
2019-05-28T20:03:25.068Z,1.57
2019-05-28T20:06:00.063Z,1.20
2019-05-28T20:08:39.579Z,1.33
2019-05-28T20:14:45.058Z,1.00
2019-05-28T20:17:20.057Z,1.23
2019-05-28T20:19:57.434Z,1.10
2019-05-28T20:22:40.701Z,1.00
2019-05-28T20:25:17.562Z,1.00
2019-05-28T20:31:21.494Z,1.10
2019-05-28T20:33:59.065Z,1.20
2019-05-28T20:40:15.053Z,0.87
2019-05-28T20:46:17.492Z,0.90
2019-05-28T20:52:34.058Z,1.00
2019-05-28T20:55:10.058Z,1.27
2019-05-28T20:57:44.060Z,1.10
2019-05-28T21:04:00.608Z,0.97
2019-05-28T21:10:18.087Z,1.47
2019-05-28T21:12:54.826Z,1.00
2019-05-28T21:15:30.080Z,1.33
2019-05-28T21:21:45.091Z,2.77
2019-05-28T21:28:09.573Z,1.17
2019-05-28T21:34:36.641Z,1.10
2019-05-28T21:37:11.090Z,1.10
2019-05-28T21:39:49.577Z,1.07
2019-05-28T21:45:24.084Z,0.97
2019-05-28T21:51:54.633Z,1.47
2019-05-28T21:54:30.085Z,1.57
2019-05-28T21:57:06.094Z,1.33
2019-05-28T21:59:43.353Z,1.30
2019-05-28T22:02:19.081Z,1.20
2019-05-28T22:04:53.081Z,1.23
2019-05-28T22:07:28.085Z,1.20
2019-05-28T22:10:06.560Z,1.00
2019-05-28T22:12:47.085Z,1.10
2019-05-28T22:15:27.687Z,1.40
2019-05-28T22:18:05.587Z,1.27
2019-05-28T22:20:43.109Z,1.13
2019-05-28T22:23:26.087Z,1.30
2019-05-28T22:26:04.907Z,1.40
2019-05-28T22:28:46.611Z,1.60
2019-05-28T22:31:28.408Z,1.17
2019-05-28T22:34:15.729Z,1.43
2019-05-28T22:40:42.093Z,1.30
2019-05-28T22:43:31.160Z,1.43
2019-05-28T22:45:59.212Z,1.50
2019-05-28T22:48:34.114Z,1.33
2019-05-28T22:51:12.562Z,1.40
2019-05-28T22:57:25.087Z,1.50
2019-05-28T23:03:42.739Z,1.23
2019-05-28T23:06:24.545Z,1.10
2019-05-28T23:08:59.768Z,1.20
2019-05-28T23:11:36.116Z,1.13
2019-05-28T23:14:13.521Z,1.80
2019-05-28T23:16:54.700Z,1.33
2019-05-28T23:19:36.900Z,1.30
2019-05-28T23:22:17.467Z,1.50
2019-05-28T23:25:03.197Z,1.40
2019-05-28T23:27:40.117Z,1.33
2019-05-28T23:30:24.540Z,1.50
2019-05-28T23:32:54.119Z,1.53
2019-05-28T23:35:30.122Z,1.30
2019-05-28T23:38:06.707Z,1.33
2019-05-28T23:40:44.611Z,1.30
2019-05-28T23:43:20.671Z,1.27
2019-05-28T23:45:56.728Z,1.30
2019-05-28T23:48:33.400Z,1.33
2019-05-28T23:51:10.687Z,1.30
2019-05-28T23:53:46.959Z,1.77
2019-05-28T23:56:28.237Z,1.57
2019-05-28T23:59:02.545Z,1.70
